Time;durP1;ratioP1;P1;durP2;ratioP2;P2;SDS_P1;SDS_P2;PMS_P1;PMS_P2;Temp;Humidity;BMP_temperature;BMP_pressure;BME280_temperature;BME280_humidity;BME280_pressure;Samples;Min_cycle;Max_cycle;Signal;HPM_P1;HPM_P2
2023/10/26 00:02:24;;;;;;;9.10;4.90;;;;;;;10.18;100.00;99013.47;6201507;28;20039;-73
2023/10/26 00:05:25;;;;;;;8.98;5.00;;;;;;;10.19;100.00;99015.94;6201545;28;20056;-72
2023/10/26 00:08:26;;;;;;;6.80;4.43;;;;;;;10.18;100.00;99018.72;6201667;28;20339;-73
2023/10/26 00:11:30;;;;;;;7.45;4.53;;;;;;;10.19;100.00;99013.31;6201038;28;20053;-73
2023/10/26 00:14:33;;;;;;;8.43;4.82;;;;;;;10.24;100.00;99013.81;6201679;28;20457;-73
2023/10/26 00:17:34;;;;;;;8.45;4.72;;;;;;;10.15;100.00;99015.34;6201482;28;20350;-73
2023/10/26 00:20:36;;;;;;;7.60;4.40;;;;;;;10.15;100.00;99015.34;6201292;28;20366;-73
2023/10/26 00:23:37;;;;;;;9.98;4.50;;;;;;;10.17;100.00;99015.22;6201395;28;20042;-73
2023/10/26 00:26:40;;;;;;;7.10;4.95;;;;;;;10.17;100.00;99017.84;6201836;28;20046;-73
2023/10/26 00:29:42;;;;;;;8.35;5.07;;;;;;;10.15;100.00;99023.22;6201441;28;20047;-73
2023/10/26 00:32:43;;;;;;;7.53;4.57;;;;;;;10.16;100.00;99024.88;6200973;28;20048;-73
2023/10/26 00:35:45;;;;;;;8.68;5.03;;;;;;;10.13;100.00;99026.94;6201343;28;20050;-73
2023/10/26 00:38:46;;;;;;;11.27;4.85;;;;;;;10.16;100.00;99029.31;6201209;28;20057;-73
2023/10/26 00:41:52;;;;;;;6.93;4.65;;;;;;;10.19;100.00;99025.63;6201187;28;20042;-73
2023/10/26 00:44:56;;;;;;;8.43;4.70;;;;;;;10.10;100.00;99025.38;6201264;28;20058;-73
2023/10/26 00:47:58;;;;;;;8.52;5.38;;;;;;;10.14;100.00;99023.38;6201405;28;20062;-73
2023/10/26 00:50:59;;;;;;;7.88;5.22;;;;;;;10.12;100.00;99025.25;6200983;28;20060;-73
2023/10/26 00:54:01;;;;;;;10.55;5.25;;;;;;;10.14;100.00;99020.72;6201096;28;20435;-73
2023/10/26 00:57:05;;;;;;;7.90;5.55;;;;;;;10.11;100.00;99016.56;6201197;28;20454;-73
2023/10/26 01:00:09;;;;;;;9.52;5.60;;;;;;;10.10;100.00;99021.94;6201201;28;20084;-73
2023/10/26 01:03:13;;;;;;;10.10;5.85;;;;;;;10.06;100.00;99023.13;6200894;28;20050;-73
2023/10/26 01:06:14;;;;;;;8.20;5.15;;;;;;;10.12;100.00;99026.09;6201192;28;20229;-73
2023/10/26 01:09:15;;;;;;;12.50;6.38;;;;;;;10.11;100.00;99023.59;6200841;28;20054;-73
2023/10/26 01:12:19;;;;;;;13.48;6.30;;;;;;;10.06;100.00;99023.13;6200653;28;20053;-73
2023/10/26 01:15:21;;;;;;;13.15;6.38;;;;;;;10.12;100.00;99023.47;6200896;28;20343;-73
2023/10/26 01:18:22;;;;;;;10.55;6.15;;;;;;;10.02;100.00;99025.16;6200847;28;20051;-74
2023/10/26 01:21:28;;;;;;;13.35;6.60;;;;;;;10.00;100.00;99027.06;6200743;28;20204;-73
2023/10/26 01:24:29;;;;;;;11.52;6.35;;;;;;;10.01;100.00;99020.03;6202832;28;20065;-73
2023/10/26 01:27:30;;;;;;;14.70;6.93;;;;;;;10.02;100.00;99022.53;6205445;28;20054;-73
2023/10/26 01:30:32;;;;;;;11.82;6.43;;;;;;;10.07;100.00;99027.41;6204891;28;20046;-73
2023/10/26 01:33:34;;;;;;;12.40;7.68;;;;;;;10.08;100.00;99018.56;6205301;28;20043;-73
2023/10/26 01:36:37;;;;;;;13.90;7.78;;;;;;;10.06;100.00;99021.34;6204775;28;20439;-73
2023/10/26 01:39:38;;;;;;;17.10;8.45;;;;;;;9.99;100.00;99025.41;6205077;28;20050;-73
2023/10/26 01:42:40;;;;;;;16.63;9.05;;;;;;;9.99;100.00;99020.16;6204731;28;20086;-73
2023/10/26 01:45:41;;;;;;;17.27;8.93;;;;;;;10.01;100.00;99020.88;6204684;28;20046;-73
2023/10/26 01:48:42;;;;;;;17.05;8.18;;;;;;;9.96;100.00;99020.41;6204886;28;20050;-74
2023/10/26 01:51:45;;;;;;;16.52;8.68;;;;;;;9.94;100.00;99024.91;6204354;28;20053;-73
2023/10/26 01:54:49;;;;;;;15.60;8.20;;;;;;;9.87;100.00;99023.75;6204015;28;20042;-74
2023/10/26 01:57:50;;;;;;;15.13;8.45;;;;;;;9.90;100.00;99023.47;6204338;28;20180;-73
2023/10/26 02:00:52;;;;;;;12.75;7.93;;;;;;;9.87;100.00;99021.13;6204033;28;20058;-73
2023/10/26 02:03:53;;;;;;;14.48;7.78;;;;;;;9.86;100.00;99022.06;6204127;28;20046;-73
2023/10/26 02:06:56;;;;;;;15.45;7.88;;;;;;;9.85;100.00;99028.25;6204306;28;20065;-73
2023/10/26 02:09:58;;;;;;;14.18;7.97;;;;;;;9.87;100.00;99037.69;6204146;28;20050;-74
2023/10/26 02:13:00;;;;;;;17.10;8.90;;;;;;;9.89;100.00;99014.78;6204217;28;20465;-73
2023/10/26 02:16:01;;;;;;;17.95;8.98;;;;;;;9.87;100.00;99024.56;6203080;28;20052;-73
2023/10/26 02:19:03;;;;;;;20.95;9.15;;;;;;;9.85;100.00;99025.63;6204127;28;20057;-74
2023/10/26 02:22:05;;;;;;;17.52;9.48;;;;;;;9.85;100.00;99031.72;6203619;28;20464;-74
2023/10/26 02:25:08;;;;;;;15.98;8.95;;;;;;;9.88;100.00;99033.28;6203811;28;20355;-74
2023/10/26 02:28:15;;;;;;;16.48;9.00;;;;;;;9.91;100.00;99041.75;6204417;28;20072;-74
2023/10/26 02:31:17;;;;;;;17.05;8.95;;;;;;;9.88;100.00;99046.38;6203803;28;20054;-73
2023/10/26 02:34:18;;;;;;;14.57;8.15;;;;;;;9.91;100.00;99040.91;6203561;28;20050;-74
2023/10/26 02:37:21;;;;;;;17.55;9.20;;;;;;;9.91;100.00;99043.53;6203987;28;20061;-75
2023/10/26 02:40:22;;;;;;;20.58;8.85;;;;;;;9.91;100.00;99049.63;6203479;28;20446;-73
2023/10/26 02:43:24;;;;;;;19.75;9.68;;;;;;;9.89;100.00;99051.50;6203165;28;20046;-73
2023/10/26 02:46:25;;;;;;;17.45;8.88;;;;;;;9.91;100.00;99051.41;6203430;28;20054;-73
2023/10/26 02:49:27;;;;;;;15.80;9.32;;;;;;;9.95;100.00;99057.22;6203055;28;20046;-74
2023/10/26 02:52:29;;;;;;;14.90;8.48;;;;;;;9.89;100.00;99059.38;6203199;28;20050;-73
2023/10/26 02:55:31;;;;;;;17.33;9.20;;;;;;;9.78;100.00;99053.31;6203126;28;20058;-73
2023/10/26 02:58:33;;;;;;;20.75;8.82;;;;;;;9.78;100.00;99062.00;6203023;28;20058;-73
2023/10/26 03:01:35;;;;;;;15.40;8.52;;;;;;;9.74;100.00;99071.06;6202806;28;20050;-73
2023/10/26 03:04:37;;;;;;;17.90;9.68;;;;;;;9.70;100.00;99066.19;6203004;28;20411;-73
2023/10/26 03:07:40;;;;;;;17.63;8.95;;;;;;;9.60;100.00;99059.00;6202843;28;20446;-72
2023/10/26 03:10:42;;;;;;;12.32;7.40;;;;;;;9.63;100.00;99063.19;6202790;28;20057;-73
2023/10/26 03:13:43;;;;;;;18.55;9.40;;;;;;;9.61;100.00;99065.91;6202762;28;20124;-72
2023/10/26 03:16:45;;;;;;;21.15;8.80;;;;;;;9.61;100.00;99063.28;6202615;28;20080;-74
2023/10/26 03:19:46;;;;;;;15.85;8.15;;;;;;;9.68;100.00;99063.69;6202637;28;20055;-73
2023/10/26 03:22:49;;;;;;;15.80;7.47;;;;;;;9.71;100.00;99063.44;6202281;28;20054;-74
2023/10/26 03:25:50;;;;;;;17.60;8.80;;;;;;;9.69;100.00;99069.75;6202637;28;20102;-73
2023/10/26 03:28:52;;;;;;;13.95;7.80;;;;;;;9.64;100.00;99073.56;6202323;28;20050;-73
2023/10/26 03:31:53;;;;;;;14.00;7.82;;;;;;;9.61;100.00;99071.16;6202321;28;20054;-73
2023/10/26 03:34:57;;;;;;;16.63;8.93;;;;;;;9.59;100.00;99067.84;6202236;28;20461;-73
2023/10/26 03:38:00;;;;;;;15.55;7.85;;;;;;;9.60;100.00;99066.03;6202169;28;20347;-72
2023/10/26 03:41:02;;;;;;;18.00;7.82;;;;;;;9.61;100.00;99078.19;6202000;28;20061;-73
2023/10/26 03:44:04;;;;;;;14.52;8.15;;;;;;;9.57;100.00;99074.97;6202211;28;20188;-72
2023/10/26 03:47:07;;;;;;;13.85;7.38;;;;;;;9.55;100.00;99083.91;6201542;28;20046;-73
2023/10/26 03:50:09;;;;;;;12.90;7.35;;;;;;;9.58;100.00;99079.28;6202379;28;20057;-73
2023/10/26 03:53:12;;;;;;;14.75;7.32;;;;;;;9.63;100.00;99082.41;6201949;28;20073;-73
2023/10/26 03:56:13;;;;;;;17.52;8.27;;;;;;;9.65;100.00;99079.63;6201021;28;20053;-72
2023/10/26 03:59:14;;;;;;;18.25;7.97;;;;;;;9.58;100.00;99087.16;6201854;28;20435;-73
2023/10/26 04:02:16;;;;;;;15.88;7.43;;;;;;;9.59;100.00;99094.06;6201423;28;20069;-72
2023/10/26 04:05:17;;;;;;;12.20;7.15;;;;;;;9.55;100.00;99094.41;6201762;28;20057;-73
2023/10/26 04:08:20;;;;;;;13.93;6.88;;;;;;;9.60;100.00;99094.91;6201642;28;20057;-73
2023/10/26 04:11:21;;;;;;;12.40;6.53;;;;;;;9.56;100.00;99093.44;6201458;28;20109;-74
2023/10/26 04:14:23;;;;;;;11.43;6.65;;;;;;;9.57;100.00;99098.56;6201443;28;20053;-72
2023/10/26 04:17:24;;;;;;;14.07;6.25;;;;;;;9.61;100.00;99094.78;6201416;28;20361;-72
2023/10/26 04:20:26;;;;;;;11.27;5.93;;;;;;;9.60;100.00;99097.53;6202077;28;20128;-72
2023/10/26 04:23:28;;;;;;;11.70;6.80;;;;;;;9.58;100.00;99094.16;6201029;28;20354;-73
2023/10/26 04:26:30;;;;;;;12.00;6.90;;;;;;;9.60;100.00;99098.34;6201584;28;20051;-73
2023/10/26 04:29:32;;;;;;;9.30;5.75;;;;;;;9.63;100.00;99105.16;6201314;28;20053;-73
2023/10/26 04:32:33;;;;;;;12.80;6.20;;;;;;;9.60;100.00;99108.00;6201378;28;20047;-73
2023/10/26 04:35:35;;;;;;;14.00;7.30;;;;;;;9.59;100.00;99107.19;6201156;28;20462;-74
2023/10/26 04:38:37;;;;;;;13.45;6.60;;;;;;;9.54;100.00;99106.69;6201559;28;20054;-73
2023/10/26 04:41:39;;;;;;;10.52;6.30;;;;;;;9.53;100.00;99109.41;6201129;28;20058;-73
2023/10/26 04:44:41;;;;;;;10.27;5.50;;;;;;;9.51;100.00;99101.66;6223940;23;20050;-83
2023/10/26 04:47:42;;;;;;;10.18;5.60;;;;;;;9.53;100.00;99106.78;6210060;28;20046;-82
2023/10/26 04:50:44;;;;;;;10.13;5.88;;;;;;;9.51;100.00;99116.56;6225682;28;20050;-83
2023/10/26 04:53:47;;;;;;;10.90;5.63;;;;;;;9.53;100.00;99104.16;6203173;28;20050;-82
2023/10/26 04:56:48;;;;;;;13.48;6.75;;;;;;;9.49;100.00;99100.09;6201524;28;20466;-83
2023/10/26 04:59:49;;;;;;;11.25;6.20;;;;;;;9.49;100.00;99100.94;6204941;28;20065;-82
2023/10/26 05:02:51;;;;;;;12.18;7.38;;;;;;;9.49;100.00;99102.72;6206081;28;20053;-82
2023/10/26 05:05:52;;;;;;;13.23;7.05;;;;;;;9.46;100.00;99108.22;6205988;28;20054;-82
2023/10/26 05:08:55;;;;;;;11.85;6.43;;;;;;;9.46;100.00;99111.66;6206025;28;20055;-83
2023/10/26 05:11:56;;;;;;;12.38;6.57;;;;;;;9.48;100.00;99112.38;6206124;28;20050;-82
2023/10/26 05:14:58;;;;;;;12.55;5.85;;;;;;;9.45;100.00;99122.25;6205946;28;20047;-83
2023/10/26 05:17:59;;;;;;;12.13;6.88;;;;;;;9.41;100.00;99121.66;6205606;28;20062;-83
2023/10/26 05:21:00;;;;;;;11.18;6.20;;;;;;;9.39;100.00;99129.63;6205803;28;20050;-83
2023/10/26 05:24:04;;;;;;;11.90;6.38;;;;;;;9.44;100.00;99123.22;6205469;28;20062;-83
2023/10/26 05:27:05;;;;;;;13.63;7.13;;;;;;;9.46;100.00;99131.81;6205506;28;20080;-82
2023/10/26 05:30:08;;;;;;;13.18;7.00;;;;;;;9.47;100.00;99125.63;6205307;28;20058;-83
2023/10/26 05:33:09;;;;;;;12.88;6.43;;;;;;;9.44;100.00;99133.69;6205079;28;20054;-83
2023/10/26 05:36:11;;;;;;;11.82;6.05;;;;;;;9.37;100.00;99131.53;6205472;28;20387;-83
2023/10/26 05:39:15;;;;;;;15.57;8.15;;;;;;;9.37;100.00;99134.16;6205423;28;20050;-83
2023/10/26 05:42:16;;;;;;;13.18;6.95;;;;;;;9.41;100.00;99137.41;6204710;28;20450;-83
2023/10/26 05:45:18;;;;;;;14.52;7.63;;;;;;;9.48;100.00;99135.97;6204840;28;20162;-83
2023/10/26 05:48:19;;;;;;;12.00;6.60;;;;;;;9.35;100.00;99141.28;6204930;28;20051;-83
2023/10/26 05:51:21;;;;;;;15.35;7.75;;;;;;;9.33;100.00;99143.19;6204595;28;20053;-83
2023/10/26 05:54:23;;;;;;;15.15;7.15;;;;;;;9.36;100.00;99139.53;6204869;28;20046;-83
2023/10/26 05:57:27;;;;;;;18.77;9.80;;;;;;;9.33;100.00;99143.19;6204739;28;20061;-83
2023/10/26 06:00:29;;;;;;;16.10;8.30;;;;;;;9.31;100.00;99146.88;6204369;28;20093;-83
2023/10/26 06:03:30;;;;;;;11.88;6.72;;;;;;;9.28;100.00;99145.34;6243514;28;20042;-82
2023/10/26 06:06:31;;;;;;;13.18;7.90;;;;;;;9.29;100.00;99149.63;6252062;28;20056;-83
2023/10/26 06:09:34;;;;;;;17.23;7.85;;;;;;;9.26;100.00;99151.63;6242249;28;20053;-83
2023/10/26 06:12:35;;;;;;;13.38;7.88;;;;;;;9.26;100.00;99151.63;6251915;28;20049;-83
2023/10/26 06:15:37;;;;;;;18.80;9.73;;;;;;;9.28;100.00;99160.22;6253045;28;20374;-82
2023/10/26 06:18:39;;;;;;;15.32;8.80;;;;;;;9.27;100.00;99163.81;6234638;28;20050;-83
2023/10/26 06:21:40;;;;;;;13.45;7.68;;;;;;;9.31;100.00;99158.22;6228866;28;20046;-83
2023/10/26 06:24:44;;;;;;;14.18;8.07;;;;;;;9.22;100.00;99158.91;6234488;28;20049;-82
2023/10/26 06:27:47;;;;;;;15.25;7.25;;;;;;;9.19;100.00;99163.53;6231090;28;20050;-83
2023/10/26 06:30:49;;;;;;;14.63;7.65;;;;;;;9.14;100.00;99162.06;6243057;28;20053;-82
2023/10/26 06:33:51;;;;;;;12.95;7.32;;;;;;;9.19;100.00;99163.53;6250913;28;20312;-82
2023/10/26 06:36:52;;;;;;;15.70;7.72;;;;;;;9.14;100.00;99164.69;6236947;28;20074;-83
2023/10/26 06:39:55;;;;;;;13.15;7.22;;;;;;;9.20;100.00;99162.56;6232403;28;20354;-83
2023/10/26 06:42:57;;;;;;;14.98;7.43;;;;;;;9.24;100.00;99169.25;6236848;28;20244;-83
2023/10/26 06:45:58;;;;;;;15.73;7.75;;;;;;;9.22;100.00;99165.91;6237748;28;20054;-82
2023/10/26 06:49:00;;;;;;;16.48;7.30;;;;;;;9.23;100.00;99165.81;6231224;28;20054;-83
2023/10/26 06:52:02;;;;;;;14.85;7.63;;;;;;;9.16;100.00;99164.56;6217899;28;20049;-83
2023/10/26 06:55:05;;;;;;;16.08;8.48;;;;;;;9.14;100.00;99161.22;6223886;28;20058;-81
2023/10/26 06:58:07;;;;;;;13.68;7.57;;;;;;;9.17;100.00;99166.22;6220347;28;20370;-82
2023/10/26 07:01:08;;;;;;;14.15;7.28;;;;;;;9.14;100.00;99175.16;6229163;28;20057;-83
2023/10/26 07:04:10;;;;;;;17.52;9.00;;;;;;;9.22;100.00;99179.88;6235475;28;20046;-82
2023/10/26 07:07:11;;;;;;;22.38;8.77;;;;;;;9.16;100.00;99188.16;6239540;28;20046;-83
2023/10/26 07:10:15;;;;;;;16.30;8.23;;;;;;;9.22;100.00;99198.22;6249465;28;20053;-80
2023/10/26 07:13:17;;;;;;;19.25;9.77;;;;;;;9.26;100.00;99202.25;6228541;28;20045;-76
2023/10/26 07:16:18;;;;;;;19.58;9.57;;;;;;;9.21;100.00;99198.31;6217810;28;20050;-76
2023/10/26 07:19:20;;;;;;;15.20;8.68;;;;;;;9.20;100.00;99188.78;6223933;28;20050;-79
2023/10/26 07:22:21;;;;;;;17.25;8.85;;;;;;;9.18;100.00;99199.38;6234741;28;20354;-77
2023/10/26 07:25:24;;;;;;;15.25;7.93;;;;;;;9.26;100.00;99201.44;6235176;28;20050;-79
2023/10/26 07:28:26;;;;;;;16.27;8.95;;;;;;;9.27;100.00;99201.34;6227018;28;20057;-75
2023/10/26 07:31:27;;;;;;;18.27;9.00;;;;;;;9.25;100.00;99200.59;6235875;28;20057;-80
2023/10/26 07:34:28;;;;;;;19.23;8.88;;;;;;;9.22;100.00;99202.59;6240153;28;20144;-79
2023/10/26 07:37:30;;;;;;;16.10;9.07;;;;;;;9.27;100.00;99198.72;6233824;28;20042;-79
2023/10/26 07:40:33;;;;;;;18.77;10.27;;;;;;;9.28;100.00;99210.88;6236744;28;20654;-79
2023/10/26 07:43:34;;;;;;;18.00;9.25;;;;;;;9.27;100.00;99209.19;6236644;28;20136;-76
2023/10/26 07:46:36;;;;;;;16.20;8.98;;;;;;;9.31;100.00;99215.03;6239090;28;20046;-76
2023/10/26 07:49:37;;;;;;;18.55;9.07;;;;;;;9.37;100.00;99214.59;6238793;28;20076;-77
2023/10/26 07:52:39;;;;;;;21.02;9.60;;;;;;;9.35;100.00;99206.00;6241378;28;20358;-75
2023/10/26 07:55:43;;;;;;;18.45;8.98;;;;;;;9.35;100.00;99203.38;6223627;28;20358;-76
2023/10/26 07:58:45;;;;;;;19.67;9.65;;;;;;;9.35;100.00;99198.97;6226178;28;20050;-78
2023/10/26 08:01:47;;;;;;;21.35;10.63;;;;;;;9.29;100.00;99202.03;6228981;28;20046;-76
2023/10/26 08:04:49;;;;;;;16.50;8.35;;;;;;;9.38;100.00;99211.84;6241954;28;20370;-78
2023/10/26 08:07:52;;;;;;;19.98;9.38;;;;;;;9.37;100.00;99219.84;6236223;28;20061;-78
2023/10/26 08:10:54;;;;;;;21.75;9.98;;;;;;;9.38;100.00;99214.47;6238690;28;20056;-78
2023/10/26 08:13:56;;;;;;;19.75;10.27;;;;;;;9.41;100.00;99216.06;6231539;28;20061;-77
2023/10/26 08:16:59;;;;;;;20.88;10.10;;;;;;;9.45;100.00;99211.41;6227899;28;20060;-77
2023/10/26 08:20:01;;;;;;;21.27;10.57;;;;;;;9.49;100.00;99212.84;6232843;28;20045;-75
2023/10/26 08:23:03;;;;;;;17.00;10.13;;;;;;;9.56;100.00;99221.97;6232283;28;20053;-77
2023/10/26 08:26:10;;;;;;;19.48;9.75;;;;;;;9.59;100.00;99219.13;6236151;28;20449;-79
2023/10/26 08:29:12;;;;;;;17.42;9.25;;;;;;;9.71;100.00;99233.09;6238178;28;20049;-75
2023/10/26 08:32:13;;;;;;;20.40;10.07;;;;;;;9.66;100.00;99233.44;6233579;28;20183;-79
2023/10/26 08:35:15;;;;;;;17.17;9.93;;;;;;;9.80;100.00;99232.41;6240029;28;20041;-77
2023/10/26 08:38:16;;;;;;;21.70;10.65;;;;;;;9.76;100.00;99237.03;6242822;28;20045;-77
2023/10/26 08:41:19;;;;;;;20.60;9.93;;;;;;;9.73;100.00;99239.91;6246711;28;20357;-78
2023/10/26 08:44:21;;;;;;;17.17;9.07;;;;;;;9.70;100.00;99236.69;6254918;28;20053;-76
2023/10/26 08:47:25;;;;;;;18.75;8.90;;;;;;;9.70;100.00;99244.53;6254325;28;20107;-77
2023/10/26 08:50:26;;;;;;;19.63;9.70;;;;;;;9.65;100.00;99244.88;6240188;28;20041;-79
2023/10/26 08:53:28;;;;;;;21.73;11.05;;;;;;;9.67;100.00;99245.59;6241073;28;20058;-79
2023/10/26 08:56:31;;;;;;;19.65;9.75;;;;;;;9.66;100.00;99247.38;6232385;28;20209;-79
2023/10/26 08:59:33;;;;;;;23.38;10.43;;;;;;;9.70;100.00;99248.00;6234805;28;20045;-78
2023/10/26 09:02:34;;;;;;;21.08;9.60;;;;;;;9.71;100.00;99248.84;6238531;28;20053;-77
2023/10/26 09:05:51;;;;;;;19.83;10.07;;;;;;;9.76;100.00;99254.56;6245916;28;20349;-78
2023/10/26 09:09:02;;;;;;;17.35;9.35;;;;;;;9.74;100.00;99253.88;6231795;28;20179;-78
2023/10/26 09:12:10;;;;;;;19.17;9.77;;;;;;;9.74;100.00;99252.06;6241315;28;20050;-80
2023/10/26 09:15:12;;;;;;;18.38;9.50;;;;;;;9.79;100.00;99255.19;6234774;28;20054;-79
2023/10/26 09:18:15;;;;;;;17.45;9.27;;;;;;;9.79;100.00;99251.72;6240514;28;20056;-79
2023/10/26 09:21:17;;;;;;;21.13;8.82;;;;;;;9.89;100.00;99256.16;6246640;28;20049;-78
2023/10/26 09:24:20;;;;;;;16.85;9.15;;;;;;;9.89;100.00;99266.66;6242159;28;20053;-78
2023/10/26 09:27:23;;;;;;;17.60;8.90;;;;;;;9.81;100.00;99265.56;6233465;28;20041;-78
2023/10/26 09:30:27;;;;;;;16.15;8.85;;;;;;;9.81;100.00;99261.19;6233195;28;20129;-78
2023/10/26 09:33:29;;;;;;;19.00;8.90;;;;;;;9.80;100.00;99261.28;6239911;28;20132;-80
2023/10/26 09:36:30;;;;;;;16.83;8.63;;;;;;;9.82;100.00;99264.63;6251545;28;20353;-78
2023/10/26 09:39:33;;;;;;;14.95;8.18;;;;;;;9.80;100.00;99256.03;6252107;28;20060;-81
2023/10/26 09:42:36;;;;;;;12.80;7.00;;;;;;;9.88;100.00;99266.78;6240895;28;20354;-81
2023/10/26 09:45:38;;;;;;;17.25;8.18;;;;;;;9.85;100.00;99259.13;6244532;28;20049;-81
2023/10/26 09:48:40;;;;;;;14.23;7.13;;;;;;;9.87;100.00;99260.72;6249514;28;20045;-81
2023/10/26 09:51:42;;;;;;;14.30;7.72;;;;;;;9.93;100.00;99255.94;6244705;28;20052;-81
2023/10/26 09:54:44;;;;;;;12.82;6.85;;;;;;;9.95;100.00;99267.16;6235090;28;20046;-82
2023/10/26 09:57:56;;;;;;;14.15;7.82;;;;;;;9.93;100.00;99269.06;6232674;28;20046;-77
2023/10/26 10:00:57;;;;;;;13.95;6.95;;;;;;;9.87;100.00;99271.22;6230338;28;20052;-79
2023/10/26 10:03:59;;;;;;;13.20;6.82;;;;;;;9.86;100.00;99271.34;6234876;28;20058;-78
2023/10/26 10:07:02;;;;;;;14.27;6.82;;;;;;;9.89;100.00;99271.91;6239699;28;20060;-78
2023/10/26 10:10:06;;;;;;;11.45;6.43;;;;;;;9.88;100.00;99277.28;6238116;28;20192;-78
2023/10/26 10:13:09;;;;;;;12.27;7.03;;;;;;;9.85;100.00;99267.00;6231560;28;20055;-78
2023/10/26 10:16:45;;;;;;;11.38;6.57;;;;;;;9.91;100.00;99274.44;6239060;28;20048;-79
2023/10/26 10:19:47;;;;;;;13.63;6.28;;;;;;;9.91;100.00;99275.28;6239711;28;20454;-79
2023/10/26 10:22:49;;;;;;;12.88;6.65;;;;;;;9.83;100.00;99272.38;6229340;28;20181;-79
2023/10/26 10:26:02;;;;;;;12.27;6.78;;;;;;;9.87;100.00;99263.34;6238841;28;20453;-77
2023/10/26 10:29:18;;;;;;;11.52;6.45;;;;;;;9.98;100.00;99270.41;6227441;28;20049;-79
2023/10/26 10:32:50;;;;;;;15.10;7.07;;;;;;;9.98;100.00;99266.94;6245092;28;20080;-79
2023/10/26 10:35:59;;;;;;;12.40;6.47;;;;;;;10.02;100.00;99273.63;6237350;28;20128;-79
2023/10/26 10:39:22;;;;;;;11.45;6.03;;;;;;;10.06;100.00;99277.72;6252434;28;20057;-80
2023/10/26 10:42:24;;;;;;;10.38;5.53;;;;;;;10.08;100.00;99278.41;6242900;28;20450;-79
2023/10/26 10:45:27;;;;;;;12.27;5.40;;;;;;;10.07;100.00;99274.13;6244146;23;20579;-71
2023/10/26 10:48:29;;;;;;;9.30;5.40;;;;;;;10.08;100.00;99281.03;6239786;28;20052;-72
2023/10/26 10:51:32;;;;;;;11.63;6.00;;;;;;;10.07;100.00;99285.47;6227393;28;20056;-72
2023/10/26 10:54:33;;;;;;;13.77;5.78;;;;;;;10.10;100.00;99280.00;6220869;28;20042;-73
2023/10/26 10:57:35;;;;;;;14.15;6.88;;;;;;;10.04;100.00;99280.47;6237228;28;20046;-72
2023/10/26 11:00:45;;;;;;;12.10;6.00;;;;;;;10.01;100.00;99279.84;6239990;28;20046;-71
2023/10/26 11:03:47;;;;;;;13.80;6.28;;;;;;;10.03;100.00;99272.69;6232061;28;20362;-72
2023/10/26 11:06:50;;;;;;;15.30;6.10;;;;;;;9.96;100.00;99274.94;6203207;28;20050;-72
2023/10/26 11:09:55;;;;;;;15.50;6.63;;;;;;;9.86;100.00;99276.56;6202696;28;20510;-71
2023/10/26 11:12:57;;;;;;;16.10;6.65;;;;;;;9.88;100.00;99277.28;6224204;28;20056;-71
2023/10/26 11:16:00;;;;;;;20.33;6.18;;;;;;;9.88;100.00;99288.63;6244571;28;20052;-73
2023/10/26 11:19:01;;;;;;;14.07;6.60;;;;;;;9.89;100.00;99284.19;6249767;28;20354;-72
2023/10/26 11:22:03;;;;;;;11.30;5.68;;;;;;;9.91;100.00;99287.56;6247437;28;20377;-72
2023/10/26 11:25:06;;;;;;;11.60;6.18;;;;;;;9.96;100.00;99295.09;6226657;28;20072;-73
2023/10/26 11:28:08;;;;;;;13.32;6.63;;;;;;;10.03;100.00;99296.31;6226924;28;20042;-75
2023/10/26 11:31:11;;;;;;;12.30;6.47;;;;;;;10.04;100.00;99292.75;6226485;28;20057;-74
2023/10/26 11:34:12;;;;;;;14.35;6.95;;;;;;;10.03;100.00;99296.31;6227062;28;20054;-73
2023/10/26 11:37:13;;;;;;;13.95;7.20;;;;;;;10.00;100.00;99289.50;6226634;28;20054;-73
2023/10/26 11:40:17;;;;;;;13.27;6.63;;;;;;;10.02;100.00;99292.00;6234541;28;20460;-73
2023/10/26 11:43:31;;;;;;;18.75;8.80;;;;;;;10.06;100.00;99293.47;6246324;28;20150;-73
2023/10/26 11:46:35;;;;;;;18.25;8.23;;;;;;;10.03;100.00;99291.88;6250948;28;20369;-74
2023/10/26 11:49:38;;;;;;;21.83;10.57;;;;;;;10.05;100.00;99291.78;6250814;28;20056;-73
2023/10/26 11:52:39;;;;;;;15.50;7.68;;;;;;;10.07;100.00;99295.13;6250825;28;20054;-72
2023/10/26 11:55:41;;;;;;;17.25;7.60;;;;;;;10.04;100.00;99287.50;6242357;28;20346;-71
2023/10/26 11:58:42;;;;;;;19.40;7.80;;;;;;;10.03;100.00;99278.75;6216663;28;20060;-72
2023/10/26 12:01:45;;;;;;;17.58;7.30;;;;;;;10.09;100.00;99285.38;6227335;28;20121;-72
2023/10/26 12:04:50;;;;;;;16.23;8.00;;;;;;;10.13;100.00;99278.94;6241807;28;20046;-71
2023/10/26 12:07:51;;;;;;;17.40;8.38;;;;;;;10.16;100.00;99279.53;6232388;28;20057;-74
2023/10/26 12:10:53;;;;;;;25.20;9.02;;;;;;;10.17;100.00;99277.72;6234241;28;20060;-73
2023/10/26 12:13:54;;;;;;;20.95;9.00;;;;;;;10.21;100.00;99286.22;6239314;28;20054;-73
2023/10/26 12:16:57;;;;;;;20.38;10.02;;;;;;;10.25;100.00;99279.81;6242454;28;20077;-74
2023/10/26 12:19:59;;;;;;;21.38;9.57;;;;;;;10.25;100.00;99280.66;6242239;28;20050;-74
2023/10/26 12:23:00;;;;;;;20.77;10.38;;;;;;;10.26;100.00;99281.47;6238984;28;20053;-70
2023/10/26 12:26:01;;;;;;;20.17;9.40;;;;;;;10.24;100.00;99292.09;6226072;28;20100;-73
2023/10/26 12:29:03;;;;;;;16.98;8.73;;;;;;;10.25;100.00;99300.81;6226521;28;20460;-73
2023/10/26 12:32:06;;;;;;;15.25;8.02;;;;;;;10.27;100.00;99301.56;6237516;28;20050;-73
2023/10/26 12:35:08;;;;;;;24.20;9.95;;;;;;;10.26;100.00;99302.50;6227947;28;20046;-72
2023/10/26 12:38:09;;;;;;;19.70;8.80;;;;;;;10.15;100.00;99303.28;6236179;28;20058;-70
2023/10/26 12:41:11;;;;;;;22.08;9.05;;;;;;;10.15;100.00;99309.34;6240988;28;20057;-71
2023/10/26 12:44:12;;;;;;;18.13;8.43;;;;;;;10.16;100.00;99300.53;6249967;28;20053;-71
2023/10/26 12:47:15;;;;;;;19.30;7.80;;;;;;;10.20;100.00;99303.75;6250089;28;20452;-72
2023/10/26 12:50:16;;;;;;;18.90;7.82;;;;;;;10.23;100.00;99310.59;6236975;28;20053;-72
2023/10/26 12:53:18;;;;;;;21.55;9.07;;;;;;;10.23;100.00;99302.72;6250049;28;20056;-71
2023/10/26 12:56:19;;;;;;;18.65;8.75;;;;;;;10.22;100.00;99307.13;6250046;28;20450;-70
2023/10/26 12:59:21;;;;;;;20.38;8.77;;;;;;;10.23;100.00;99310.59;6249898;28;20053;-72
2023/10/26 13:02:23;;;;;;;20.42;8.93;;;;;;;10.23;100.00;99306.16;6221721;28;20049;-74
2023/10/26 13:05:25;;;;;;;24.38;9.25;;;;;;;10.20;100.00;99302.94;6246397;28;20046;-71
2023/10/26 13:08:26;;;;;;;27.77;10.75;;;;;;;10.22;100.00;99307.13;6250042;28;20053;-71
2023/10/26 13:11:28;;;;;;;19.42;8.57;;;;;;;10.28;100.00;99295.34;6249638;28;20078;-71
2023/10/26 13:14:29;;;;;;;22.05;9.00;;;;;;;10.33;100.00;99294.03;6249756;28;20446;-72
2023/10/26 13:17:33;;;;;;;24.38;11.68;;;;;;;10.23;100.00;99298.28;6249855;28;20050;-72
2023/10/26 13:20:34;;;;;;;16.00;7.88;;;;;;;10.31;100.00;99300.34;6244418;28;20052;-74
2023/10/26 13:23:36;;;;;;;20.27;8.13;;;;;;;10.38;100.00;99296.31;6226233;28;20046;-73
2023/10/26 13:26:37;;;;;;;21.05;9.40;;;;;;;10.41;100.00;99289.06;6229303;28;20076;-75
2023/10/26 13:29:39;;;;;;;19.05;8.82;;;;;;;10.47;100.00;99294.78;6223026;28;20052;-71
2023/10/26 13:32:42;;;;;;;23.33;8.85;;;;;;;10.44;100.00;99295.84;6229535;28;20052;-70
2023/10/26 13:35:44;;;;;;;17.77;8.00;;;;;;;10.45;100.00;99296.72;6229527;28;20053;-70
2023/10/26 13:38:45;;;;;;;13.05;6.40;;;;;;;10.45;100.00;99294.91;6235919;28;20351;-72
2023/10/26 13:41:47;;;;;;;31.95;14.13;;;;;;;10.35;100.00;99291.28;6241887;28;20045;-71
2023/10/26 13:44:48;;;;;;;31.08;13.80;;;;;;;10.30;100.00;99283.75;6244693;28;20056;-70
2023/10/26 13:47:51;;;;;;;42.10;19.75;;;;;;;10.33;100.00;99285.34;6254006;28;20434;-72
2023/10/26 13:50:52;;;;;;;18.58;10.73;;;;;;;10.33;100.00;99293.22;6253370;28;20065;-72
2023/10/26 13:53:54;;;;;;;21.17;10.52;;;;;;;10.29;100.00;99289.97;6253598;28;20057;-72
2023/10/26 13:56:55;;;;;;;19.27;9.70;;;;;;;10.29;100.00;99289.97;6253545;28;20050;-71
2023/10/26 13:59:57;;;;;;;15.45;7.78;;;;;;;10.29;100.00;99282.09;6239700;28;20056;-71
2023/10/26 14:03:01;;;;;;;22.52;9.65;;;;;;;10.32;100.00;99275.78;6244860;28;20053;-72
2023/10/26 14:06:03;;;;;;;12.93;6.97;;;;;;;10.37;100.00;99276.28;6239112;28;20046;-72